Time;durP1;ratioP1;P1;durP2;ratioP2;P2;SDS_P1;SDS_P2;PMS_P1;PMS_P2;Temp;Humidity;BMP_temperature;BMP_pressure;BME280_temperature;BME280_humidity;BME280_pressure;Samples;Min_cycle;Max_cycle;Signal;HPM_P1;HPM_P2
2022/03/05 00:00:34;;;;;;;;;48.75;40.75;;;;;12.68;59.40;101454.25;4922348;28;45271;-63
2022/03/05 00:03:00;;;;;;;;;53.00;40.25;;;;;12.63;59.69;101453.50;4922420;28;45243;-63
2022/03/05 00:05:26;;;;;;;;;55.50;44.00;;;;;12.56;59.47;101451.03;4922249;28;45546;-63
2022/03/05 00:07:52;;;;;;;;;50.75;41.50;;;;;12.57;59.53;101451.88;4922276;28;45317;-63
2022/03/05 00:10:19;;;;;;;;;53.75;41.50;;;;;12.55;59.78;101454.63;4922314;28;45323;-63
2022/03/05 00:12:45;;;;;;;;;44.75;34.50;;;;;12.55;59.93;101441.22;4923674;28;45449;-63
2022/03/05 00:15:10;;;;;;;;;51.00;42.00;;;;;12.62;59.83;101451.75;4928880;28;46194;-63
2022/03/05 00:17:36;;;;;;;;;49.50;40.50;;;;;12.58;59.65;101451.84;4947078;28;45396;-63
2022/03/05 00:20:01;;;;;;;;;47.75;38.75;;;;;12.58;59.94;101437.59;4951916;28;45392;-63
2022/03/05 00:22:27;;;;;;;;;46.25;37.50;;;;;12.61;60.04;101450.88;4944383;28;45551;-63
2022/03/05 00:24:52;;;;;;;;;50.25;40.00;;;;;12.55;59.78;101433.19;4943225;28;47396;-63
2022/03/05 00:27:17;;;;;;;;;50.00;41.25;;;;;12.53;59.96;101434.13;4944100;28;45191;-63
2022/03/05 00:29:44;;;;;;;;;42.50;35.75;;;;;12.59;59.96;101447.34;4943929;28;45735;-63
2022/03/05 00:32:09;;;;;;;;;54.75;43.75;;;;;12.53;59.84;101435.03;4940550;28;45491;-63
2022/03/05 00:34:35;;;;;;;;;52.75;42.50;;;;;12.56;59.97;101440.31;4943804;28;46064;-63
2022/03/05 00:37:00;;;;;;;;;45.50;39.50;;;;;12.58;60.02;101446.50;4944279;28;45286;-63
2022/03/05 00:39:25;;;;;;;;;48.75;40.25;;;;;12.57;60.02;101444.72;4944440;28;45337;-63
2022/03/05 00:41:51;;;;;;;;;51.25;41.75;;;;;12.60;59.89;101441.09;4933197;28;45413;-63
2022/03/05 00:44:17;;;;;;;;;52.00;43.75;;;;;12.59;59.92;101437.50;4942754;28;46544;-63
2022/03/05 00:46:42;;;;;;;;;47.75;40.50;;;;;12.55;60.07;101438.53;4944075;28;45313;-63
2022/03/05 00:49:08;;;;;;;;;52.25;38.75;;;;;12.52;60.06;101435.94;4937214;28;45856;-63
2022/03/05 00:51:33;;;;;;;;;49.00;39.75;;;;;12.58;60.12;101440.28;4937139;28;45513;-63
2022/03/05 00:53:58;;;;;;;;;50.00;40.75;;;;;12.60;60.30;101441.97;4943995;28;45235;-63
2022/03/05 00:56:24;;;;;;;;;54.00;40.75;;;;;12.64;60.01;101439.19;4943711;28;45330;-63
2022/03/05 00:58:49;;;;;;;;;50.75;39.50;;;;;12.56;59.94;101426.03;4943936;28;45446;-63
2022/03/05 01:01:15;;;;;;;;;47.25;36.25;;;;;12.57;59.98;101442.03;4943846;28;45218;-63
2022/03/05 01:03:40;;;;;;;;;44.50;38.25;;;;;12.52;59.99;101427.91;4943732;28;45353;-63
2022/03/05 01:06:06;;;;;;;;;42.25;37.25;;;;;12.54;60.12;101442.13;4943743;28;45239;-63
2022/03/05 01:08:33;;;;;;;;;49.25;40.75;;;;;12.52;59.95;101430.59;4943853;28;45305;-63
2022/03/05 01:10:59;;;;;;;;;45.75;38.00;;;;;12.51;59.92;101422.59;4943843;28;46377;-63
2022/03/05 01:13:24;;;;;;;;;43.00;36.50;;;;;12.58;59.92;101438.47;4941524;28;46134;-63
2022/03/05 01:15:49;;;;;;;;;52.00;39.50;;;;;12.58;59.99;101429.56;4932523;28;45254;-63
2022/03/05 01:18:15;;;;;;;;;48.50;39.00;;;;;12.57;59.76;101436.69;4949881;28;45694;-63
2022/03/05 01:20:40;;;;;;;;;39.50;34.75;;;;;12.52;59.80;101432.41;4943555;28;45430;-63
2022/03/05 01:23:06;;;;;;;;;44.00;38.25;;;;;12.45;59.77;101431.72;4943527;28;46097;-63
2022/03/05 01:25:31;;;;;;;;;46.50;38.50;;;;;12.50;59.89;101435.13;4943431;28;45436;-63
2022/03/05 01:27:56;;;;;;;;;50.50;39.25;;;;;12.50;59.69;101431.56;4942827;28;45452;-63
2022/03/05 01:30:22;;;;;;;;;49.75;39.25;;;;;12.52;59.65;101427.03;4942892;28;45619;-63
2022/03/05 01:32:47;;;;;;;;;51.25;41.00;;;;;12.54;59.81;101431.41;4931365;28;45417;-63
2022/03/05 01:35:12;;;;;;;;;47.75;39.00;;;;;12.57;59.34;101433.16;4924392;28;45358;-63
2022/03/05 01:37:38;;;;;;;;;48.75;39.25;;;;;12.56;59.22;101426.91;4924552;28;45307;-63
2022/03/05 01:40:04;;;;;;;;;53.75;43.50;;;;;12.54;59.29;101420.72;4924376;28;45503;-63
2022/03/05 01:42:29;;;;;;;;;39.75;35.25;;;;;12.54;59.13;101422.50;4928290;28;47124;-63
2022/03/05 01:44:55;;;;;;;;;46.00;37.25;;;;;12.53;59.14;101435.03;4924073;28;45355;-63
2022/03/05 01:47:20;;;;;;;;;43.75;36.25;;;;;12.43;59.33;101425.53;4931814;28;45318;-63
2022/03/05 01:49:46;;;;;;;;;39.75;35.00;;;;;12.45;59.54;101444.22;4942909;28;45480;-63
2022/03/05 01:52:11;;;;;;;;;44.00;37.25;;;;;12.43;59.04;101438.91;4941919;28;46096;-63
2022/03/05 01:54:38;;;;;;;;;49.25;38.75;;;;;12.36;59.38;101431.97;4941861;28;45586;-65
2022/03/05 01:57:03;;;;;;;;;46.25;37.00;;;;;12.31;59.44;101434.78;4943029;28;45401;-63
2022/03/05 01:59:29;;;;;;;;;41.00;35.00;;;;;12.33;59.63;101432.94;4943744;28;45578;-63
2022/03/05 02:01:55;;;;;;;;;49.00;36.50;;;;;12.37;59.49;101441.75;4942908;28;45328;-63
2022/03/05 02:04:21;;;;;;;;;40.25;35.00;;;;;12.39;59.45;101439.91;4943800;28;45915;-63
2022/03/05 02:06:47;;;;;;;;;36.25;31.50;;;;;12.39;59.41;101443.44;4944798;28;45504;-63
2022/03/05 02:09:12;;;;;;;;;38.50;35.00;;;;;12.43;59.38;101441.59;4942816;28;45329;-63
2022/03/05 02:11:39;;;;;;;;;53.75;41.25;;;;;12.45;59.58;101450.44;4942496;28;46317;-63
2022/03/05 02:14:05;;;;;;;;;42.75;36.00;;;;;12.48;59.60;101436.06;4946699;28;45159;-63
2022/03/05 02:16:30;;;;;;;;;42.25;37.00;;;;;12.49;59.25;101432.50;4942532;28;45226;-63
2022/03/05 02:18:56;;;;;;;;;42.00;37.50;;;;;12.50;59.24;101427.09;4955601;28;45162;-63
2022/03/05 02:21:23;;;;;;;;;39.75;35.75;;;;;12.51;59.42;101434.22;4941582;28;46216;-63
2022/03/05 02:23:49;;;;;;;;;40.50;35.50;;;;;12.52;59.06;101429.72;4950740;28;45273;-63
2022/03/05 02:26:14;;;;;;;;;42.75;37.75;;;;;12.49;59.33;101424.47;4944855;28;45452;-63
2022/03/05 02:28:40;;;;;;;;;44.75;36.25;;;;;12.54;59.18;101434.09;4937457;28;45515;-63
2022/03/05 02:31:06;;;;;;;;;45.25;35.75;;;;;12.54;59.12;101434.09;4941403;28;45431;-63
2022/03/05 02:33:32;;;;;;;;;44.25;36.75;;;;;12.45;59.17;101418.31;4942445;28;45693;-63
2022/03/05 02:35:57;;;;;;;;;37.25;35.00;;;;;12.51;59.06;101420.81;4942791;28;45328;-63
2022/03/05 02:38:24;;;;;;;;;37.75;34.50;;;;;12.48;59.10;101420.91;4942614;28;45313;-63
2022/03/05 02:40:51;;;;;;;;;42.75;38.25;;;;;12.50;59.06;101419.06;4941445;28;46120;-63
2022/03/05 02:43:17;;;;;;;;;43.75;37.25;;;;;12.50;59.11;101419.06;4941573;28;45325;-63
2022/03/05 02:45:43;;;;;;;;;46.25;37.00;;;;;12.45;59.10;101421.00;4942354;28;45265;-63
2022/03/05 02:48:12;;;;;;;;;45.00;35.25;;;;;12.45;59.00;101415.63;4942303;28;45488;-63
2022/03/05 02:50:39;;;;;;;;;36.25;34.75;;;;;12.42;59.02;101416.59;4942383;28;47232;-63
2022/03/05 02:53:04;;;;;;;;;41.50;32.75;;;;;12.41;58.90;101417.53;4942203;28;45564;-63
2022/03/05 02:55:30;;;;;;;;;41.50;35.50;;;;;12.39;59.05;101414.00;4942034;28;45300;-63
2022/03/05 02:57:56;;;;;;;;;37.25;32.50;;;;;12.40;59.07;101413.09;4933367;28;45348;-63
2022/03/05 03:00:21;;;;;;;;;43.75;36.50;;;;;12.36;58.94;101399.84;4942059;28;46138;-63
2022/03/05 03:02:47;;;;;;;;;41.25;36.25;;;;;12.36;58.98;101414.13;4942184;28;45400;-63
2022/03/05 03:05:14;;;;;;;;;42.75;35.50;;;;;12.35;59.15;101406.13;4942224;28;45241;-63
2022/03/05 03:07:40;;;;;;;;;41.25;36.00;;;;;12.35;58.77;101408.81;4941975;28;45310;-63
2022/03/05 03:10:07;;;;;;;;;37.25;31.00;;;;;12.35;59.07;101398.09;4942149;28;46100;-63
2022/03/05 03:12:33;;;;;;;;;33.25;33.00;;;;;12.35;59.02;101403.44;4941822;28;45489;-63
2022/03/05 03:14:59;;;;;;;;;39.50;35.25;;;;;12.31;58.87;101409.78;4941930;28;45324;-63
2022/03/05 03:17:24;;;;;;;;;46.25;36.00;;;;;12.27;59.12;101413.50;4947025;28;45536;-63
2022/03/05 03:19:49;;;;;;;;;44.00;35.00;;;;;12.21;58.85;101407.41;4938286;28;45357;-63
2022/03/05 03:22:15;;;;;;;;;28.75;25.25;;;;;12.15;58.74;101402.22;4941657;28;45465;-63
2022/03/05 03:24:42;;;;;;;;;38.75;32.75;;;;;12.10;58.91;101409.50;4941766;28;45405;-63
2022/03/05 03:27:07;;;;;;;;;42.00;36.00;;;;;11.99;59.29;101404.44;4923515;28;45410;-63
2022/03/05 03:29:33;;;;;;;;;36.75;32.25;;;;;11.93;59.28;101404.63;4922688;28;45710;-63
2022/03/05 03:31:58;;;;;;;;;39.75;35.50;;;;;11.95;59.48;101407.25;4922576;28;45358;-63
2022/03/05 03:34:24;;;;;;;;;41.75;35.25;;;;;11.97;59.73;101405.41;4922853;28;45381;-63
2022/03/05 03:36:49;;;;;;;;;41.25;31.25;;;;;11.92;59.40;101410.00;4922571;28;45295;-63
2022/03/05 03:39:14;;;;;;;;;33.00;30.00;;;;;11.95;59.46;101408.13;4923534;28;46251;-63
2022/03/05 03:41:40;;;;;;;;;41.25;36.00;;;;;12.00;59.73;101411.53;4935783;28;45444;-63
2022/03/05 03:44:05;;;;;;;;;42.00;35.00;;;;;11.99;59.61;101403.56;4927499;28;45503;-63
2022/03/05 03:46:31;;;;;;;;;40.50;34.75;;;;;12.04;59.44;101410.56;4940065;28;45472;-63
2022/03/05 03:48:56;;;;;;;;;46.75;38.25;;;;;12.00;59.19;101408.00;4929867;28;45424;-63
2022/03/05 03:51:22;;;;;;;;;42.50;35.75;;;;;11.96;59.12;101409.00;4939128;28;45547;-63
2022/03/05 03:53:47;;;;;;;;;43.75;38.25;;;;;11.97;59.11;101419.66;4938680;28;45461;-63
2022/03/05 03:56:13;;;;;;;;;37.00;33.00;;;;;11.97;59.25;101418.78;4956785;28;45399;-63
2022/03/05 03:58:40;;;;;;;;;40.75;35.25;;;;;11.97;59.32;101418.78;4941378;28;46345;-64
2022/03/05 04:01:05;;;;;;;;;41.00;33.50;;;;;11.92;59.20;101415.34;4941906;28;45507;-62
2022/03/05 04:03:31;;;;;;;;;39.25;32.00;;;;;11.93;59.56;101417.09;4940291;28;45817;-63
2022/03/05 04:05:56;;;;;;;;;38.75;33.00;;;;;11.93;59.27;101412.66;4938205;28;45298;-63
2022/03/05 04:11:05;;;;;;;;;42.75;35.75;;;;;11.87;59.01;101415.44;4940220;28;45447;-63
2022/03/05 04:13:30;;;;;;;;;37.25;34.25;;;;;11.89;59.18;101423.44;4941027;28;45690;-63
2022/03/05 04:15:56;;;;;;;;;38.25;34.25;;;;;11.82;59.04;101414.69;4941820;28;45499;-62
2022/03/05 04:18:22;;;;;;;;;39.50;34.00;;;;;11.77;59.37;101414.81;4936033;28;45441;-63
2022/03/05 04:20:47;;;;;;;;;32.00;28.50;;;;;11.74;59.28;101420.22;4940958;28;45360;-63
2022/03/05 04:23:12;;;;;;;;;40.25;33.50;;;;;11.73;59.67;101418.50;4934618;28;45311;-63
2022/03/05 04:25:38;;;;;;;;;32.50;27.00;;;;;11.71;59.63;101423.00;4941180;28;45234;-63
2022/03/05 04:28:03;;;;;;;;;40.25;34.75;;;;;11.65;59.53;101425.84;4940809;28;45491;-63
2022/03/05 04:30:29;;;;;;;;;37.00;32.25;;;;;11.64;59.62;101424.06;4941042;28;45287;-63
2022/03/05 04:32:54;;;;;;;;;36.50;32.75;;;;;11.60;59.99;101414.38;4941130;28;45318;-62
2022/03/05 04:35:20;;;;;;;;;35.50;33.00;;;;;11.64;59.69;101416.06;4940879;28;45448;-63
2022/03/05 04:37:46;;;;;;;;;41.00;35.75;;;;;11.70;59.88;101421.25;4940535;28;46381;-63
2022/03/05 04:40:12;;;;;;;;;31.75;27.75;;;;;11.67;60.09;101416.84;4941120;28;45652;-63
2022/03/05 04:42:37;;;;;;;;;44.25;36.25;;;;;11.69;59.93;101427.50;4940569;28;45428;-62
2022/03/05 04:45:03;;;;;;;;;38.25;34.25;;;;;11.66;60.03;101430.25;4940761;28;45392;-62
2022/03/05 04:47:29;;;;;;;;;34.25;32.50;;;;;11.66;60.00;101422.22;4936986;28;46161;-63
2022/03/05 04:49:54;;;;;;;;;36.75;34.50;;;;;11.71;60.07;101427.47;4946931;28;45317;-63
2022/03/05 04:52:19;;;;;;;;;40.50;36.25;;;;;11.66;60.18;101423.13;4939658;28;45170;-63
2022/03/05 04:54:45;;;;;;;;;33.25;29.25;;;;;11.67;60.42;101424.00;4940425;28;45496;-63
2022/03/05 04:57:10;;;;;;;;;35.75;32.75;;;;;11.68;60.06;101434.66;4940439;28;45238;-62
2022/03/05 04:59:36;;;;;;;;;43.75;37.25;;;;;11.64;59.95;101427.66;4940160;28;45410;-62
2022/03/05 05:02:01;;;;;;;;;44.00;35.50;;;;;11.70;60.13;101431.06;4940689;28;45374;-63
2022/03/05 05:04:27;;;;;;;;;49.25;38.25;;;;;11.71;59.90;101431.03;4926646;28;45442;-63
2022/03/05 05:06:52;;;;;;;;;39.25;35.00;;;;;11.69;59.78;101430.19;4924369;28;45976;-63
2022/03/05 05:09:18;;;;;;;;;43.00;34.00;;;;;11.70;60.21;101439.09;4924851;28;45222;-63
2022/03/05 05:11:43;;;;;;;;;42.25;36.50;;;;;11.68;59.81;101433.78;4925133;28;45558;-63
2022/03/05 05:14:10;;;;;;;;;40.50;34.25;;;;;11.59;59.99;101424.19;4937295;28;45516;-62
2022/03/05 05:16:36;;;;;;;;;44.25;36.00;;;;;11.61;60.09;101424.16;4939556;28;46078;-63
2022/03/05 05:21:45;;;;;;;;;41.50;31.75;;;;;11.63;60.01;101435.72;4937777;28;45500;-63
2022/03/05 05:24:10;;;;;;;;;46.75;39.00;;;;;11.63;59.93;101439.25;4935736;28;45360;-63
2022/03/05 05:26:36;;;;;;;;;38.75;35.50;;;;;11.60;60.17;101433.97;4939909;28;46418;-63
2022/03/05 05:29:01;;;;;;;;;40.50;35.50;;;;;11.61;59.88;101441.09;4932165;28;45368;-63
2022/03/05 05:31:27;;;;;;;;;44.75;37.00;;;;;11.62;60.04;101442.81;4942374;28;45409;-63
2022/03/05 05:33:52;;;;;;;;;41.75;36.50;;;;;11.58;60.10;101449.19;4938980;28;45530;-63
2022/03/05 05:36:18;;;;;;;;;31.50;28.25;;;;;11.58;60.17;101451.88;4936481;28;46023;-63
2022/03/05 05:38:44;;;;;;;;;40.25;36.00;;;;;11.60;59.99;101449.16;4942186;28;45790;-63
2022/03/05 05:41:09;;;;;;;;;39.75;35.25;;;;;11.60;60.30;101452.69;4941140;28;45355;-63
2022/03/05 05:43:35;;;;;;;;;43.00;36.75;;;;;11.58;60.17;101451.88;4941679;28;45441;-63
2022/03/05 05:46:01;;;;;;;;;45.75;36.00;;;;;11.60;60.28;101451.81;4942207;28;45447;-62
2022/03/05 05:48:26;;;;;;;;;41.25;35.25;;;;;11.55;60.13;101446.59;4941323;28;45247;-62
2022/03/05 05:50:52;;;;;;;;;38.00;35.00;;;;;11.55;60.20;101454.59;4941829;28;45142;-63
2022/03/05 05:53:17;;;;;;;;;45.25;36.75;;;;;11.52;60.17;101451.13;4943092;28;45405;-63
2022/03/05 05:55:42;;;;;;;;;44.75;37.50;;;;;11.49;60.37;101446.72;4942789;28;45378;-63
2022/03/05 05:58:08;;;;;;;;;37.25;32.00;;;;;11.52;60.61;101453.81;4943106;28;45313;-63
2022/03/05 06:00:33;;;;;;;;;45.25;38.75;;;;;11.51;60.36;101458.28;4942762;28;45222;-63
2022/03/05 06:02:58;;;;;;;;;43.25;37.25;;;;;11.51;60.46;101460.97;4938454;28;45468;-63
2022/03/05 06:05:24;;;;;;;;;39.25;35.75;;;;;11.49;60.39;101462.78;4941615;28;45453;-63
2022/03/05 06:07:49;;;;;;;;;44.00;37.00;;;;;11.41;60.41;101451.38;4943018;28;45475;-63
2022/03/05 06:10:15;;;;;;;;;43.25;35.75;;;;;11.45;60.71;101459.31;4937095;28;45388;-63
2022/03/05 06:12:40;;;;;;;;;47.75;39.00;;;;;11.50;60.50;101460.06;4940916;28;45307;-63
2022/03/05 06:15:08;;;;;;;;;43.50;35.75;;;;;11.54;60.29;101463.53;4937667;28;46265;-63
2022/03/05 06:17:34;;;;;;;;;44.00;37.25;;;;;11.55;60.51;101459.94;4942635;28;45366;-63
2022/03/05 06:19:59;;;;;;;;;43.75;36.00;;;;;11.58;60.47;101464.38;4926562;28;45188;-63
2022/03/05 06:22:25;;;;;;;;;40.75;35.25;;;;;11.58;60.42;101465.22;4933656;28;45318;-63
2022/03/05 06:24:50;;;;;;;;;46.50;39.00;;;;;11.62;60.48;101471.38;4939813;28;45317;-63
2022/03/05 06:27:15;;;;;;;;;39.50;33.00;;;;;11.64;60.63;101466.84;4939402;28;45330;-63
2022/03/05 06:29:41;;;;;;;;;40.50;36.50;;;;;11.59;60.70;101452.72;4942244;28;45222;-63
2022/03/05 06:32:07;;;;;;;;;43.25;34.25;;;;;11.68;60.53;101472.09;4938399;28;45473;-63
2022/03/05 06:34:32;;;;;;;;;43.75;36.25;;;;;11.70;60.27;101468.53;4939100;28;46022;-63
2022/03/05 06:36:57;;;;;;;;;42.00;38.25;;;;;11.66;60.62;101467.69;4947530;28;45278;-63
2022/03/05 06:39:23;;;;;;;;;41.75;36.25;;;;;11.70;60.46;101471.19;4937439;28;45541;-62
2022/03/05 06:41:49;;;;;;;;;43.00;36.25;;;;;11.68;60.45;101466.75;4936282;28;45561;-63
2022/03/05 06:44:15;;;;;;;;;40.00;34.50;;;;;11.70;60.44;101468.53;4940874;28;46281;-62
2022/03/05 06:46:41;;;;;;;;;49.00;41.50;;;;;11.72;60.41;101472.91;4942238;28;45460;-63
2022/03/05 06:49:06;;;;;;;;;43.50;37.25;;;;;11.74;60.14;101484.44;4942216;28;45482;-63
2022/03/05 06:51:31;;;;;;;;;46.25;37.75;;;;;11.75;59.90;101482.66;4933251;28;45452;-63
2022/03/05 06:53:56;;;;;;;;;46.75;37.75;;;;;11.73;59.70;101487.13;4939699;28;47287;-62
2022/03/05 06:56:22;;;;;;;;;45.00;37.25;;;;;11.69;59.59;101489.00;4940839;28;45360;-63
2022/03/05 06:58:47;;;;;;;;;48.25;39.25;;;;;11.73;59.49;101497.84;4934996;28;45343;-63
2022/03/05 07:01:13;;;;;;;;;46.00;37.25;;;;;11.71;59.25;101492.56;4941250;28;45406;-63
2022/03/05 07:03:38;;;;;;;;;44.00;37.75;;;;;11.75;59.11;101493.34;4941924;28;45285;-63
2022/03/05 07:06:04;;;;;;;;;49.00;40.00;;;;;11.72;59.21;101488.94;4941956;28;45255;-63
2022/03/05 07:08:29;;;;;;;;;44.00;37.00;;;;;11.70;59.13;101492.59;4941667;28;45501;-63
2022/03/05 07:10:54;;;;;;;;;49.00;39.50;;;;;11.73;59.36;101498.75;4942114;28;45316;-63
2022/03/05 07:13:20;;;;;;;;;34.50;31.50;;;;;11.72;59.25;101502.31;4940680;28;45724;-63
2022/03/05 07:15:45;;;;;;;;;44.00;38.25;;;;;11.72;59.61;101510.34;4941961;28;45273;-63
2022/03/05 07:18:10;;;;;;;;;53.00;40.25;;;;;11.67;58.65;101507.78;4938176;28;45583;-63
2022/03/05 07:20:36;;;;;;;;;44.25;35.00;;;;;11.52;58.90;101493.91;4935631;28;45524;-63
2022/03/05 07:23:04;;;;;;;;;44.50;38.00;;;;;11.57;58.57;101508.06;4940376;28;46224;-63
2022/03/05 07:25:36;;;;;;;;;49.00;38.25;;;;;11.56;58.69;101511.63;4931940;28;45719;-63
2022/03/05 07:28:01;;;;;;;;;53.75;42.50;;;;;11.45;58.30;101501.19;4943447;28;45369;-63
2022/03/05 07:30:27;;;;;;;;;50.25;39.00;;;;;11.41;58.87;101512.88;4937698;28;46145;-63
2022/03/05 07:32:52;;;;;;;;;47.75;39.00;;;;;11.35;58.68;101516.56;4938666;28;45291;-63
2022/03/05 07:35:17;;;;;;;;;51.00;42.75;;;;;11.30;59.06;101508.66;4930903;28;45313;-63
2022/03/05 07:37:43;;;;;;;;;47.50;39.25;;;;;11.35;59.42;101524.59;4941534;28;45223;-64
2022/03/05 07:40:09;;;;;;;;;48.75;41.50;;;;;11.33;59.32;101523.75;4927031;28;45583;-63
2022/03/05 07:42:34;;;;;;;;;48.25;40.00;;;;;11.27;59.14;101518.53;4928274;28;46031;-63
2022/03/05 07:45:00;;;;;;;;;50.00;40.00;;;;;11.25;59.67;101520.38;4932219;28;45407;-63
2022/03/05 07:47:25;;;;;;;;;50.50;39.25;;;;;11.26;59.92;101531.03;4942538;28;45512;-62
2022/03/05 07:49:51;;;;;;;;;52.50;41.50;;;;;11.29;59.94;101532.75;4943022;28;45460;-62
2022/03/05 07:52:16;;;;;;;;;46.75;37.00;;;;;11.27;60.05;101535.44;4934634;28;45455;-63
2022/03/05 07:54:42;;;;;;;;;46.75;40.00;;;;;11.26;59.66;101535.47;4926471;28;45384;-63
2022/03/05 07:57:07;;;;;;;;;43.75;36.50;;;;;11.24;60.17;101534.66;4922096;28;45391;-62
2022/03/05 07:59:32;;;;;;;;;47.75;38.75;;;;;11.26;60.51;101539.06;4933557;28;45294;-63
2022/03/05 08:01:57;;;;;;;;;48.75;40.00;;;;;11.30;60.16;101542.53;4937449;28;45296;-63
2022/03/05 08:04:23;;;;;;;;;48.00;40.75;;;;;11.32;59.93;101532.69;4941054;28;45332;-63
2022/03/05 08:06:48;;;;;;;;;47.50;40.00;;;;;11.34;59.75;101543.34;4941774;28;45254;-63
2022/03/05 08:09:13;;;;;;;;;50.75;39.25;;;;;11.36;60.22;101542.41;4938164;28;46377;-63
2022/03/05 08:11:39;;;;;;;;;49.25;39.00;;;;;11.37;60.03;101528.09;4944685;28;46229;-63
2022/03/05 08:14:04;;;;;;;;;49.75;40.50;;;;;11.42;59.91;101538.69;4937186;28;45275;-63
2022/03/05 08:16:31;;;;;;;;;47.00;39.25;;;;;11.38;59.58;101529.00;4939417;28;45328;-62
2022/03/05 08:18:57;;;;;;;;;48.50;39.00;;;;;11.46;59.81;101540.38;4931731;28;45890;-62
2022/03/05 08:21:23;;;;;;;;;47.25;39.25;;;;;11.39;59.96;101536.97;4921979;28;45288;-62
2022/03/05 08:23:48;;;;;;;;;46.75;40.00;;;;;11.39;60.24;101538.75;4921962;28;45369;-63
2022/03/05 08:26:14;;;;;;;;;43.00;37.75;;;;;11.38;60.00;101545.03;4929099;28;46164;-63
2022/03/05 08:28:42;;;;;;;;;40.25;35.50;;;;;11.41;60.09;101547.63;4946108;28;46148;-63
2022/03/05 08:31:08;;;;;;;;;45.75;39.25;;;;;11.37;59.92;101538.78;4940615;28;45405;-63
2022/03/05 08:33:33;;;;;;;;;36.50;34.50;;;;;11.43;60.21;101540.47;4935954;28;45653;-63
2022/03/05 08:35:58;;;;;;;;;36.50;32.75;;;;;11.44;60.21;101543.09;4940845;28;45259;-63
2022/03/05 08:38:24;;;;;;;;;34.50;32.25;;;;;11.43;60.27;101540.47;4942633;28;45350;-63
2022/03/05 08:40:50;;;;;;;;;42.75;35.50;;;;;11.54;60.34;101543.75;4939537;28;45916;-63
2022/03/05 08:43:15;;;;;;;;;38.75;34.75;;;;;11.54;60.23;101546.41;4938651;28;45426;-63
2022/03/05 08:45:40;;;;;;;;;37.25;34.75;;;;;11.58;60.21;101544.59;4944227;28;45353;-63
2022/03/05 08:48:06;;;;;;;;;39.50;35.00;;;;;11.58;60.33;101545.44;4943076;28;46222;-63
2022/03/05 08:50:32;;;;;;;;;39.25;35.25;;;;;11.60;60.06;101542.75;4954477;28;46871;-63
2022/03/05 08:52:58;;;;;;;;;39.75;34.00;;;;;11.64;60.23;101542.63;4939131;28;45475;-63
2022/03/05 08:55:23;;;;;;;;;46.50;37.00;;;;;11.66;59.79;101542.56;4941905;28;45544;-63
2022/03/05 08:57:48;;;;;;;;;42.75;37.25;;;;;11.66;59.86;101550.59;4943035;28;45434;-63
2022/03/05 09:00:15;;;;;;;;;46.50;36.50;;;;;11.65;60.13;101549.72;4941482;28;45407;-63
2022/03/05 09:02:42;;;;;;;;;42.25;38.25;;;;;11.62;59.83;101547.13;4940092;28;45297;-63
2022/03/05 09:05:08;;;;;;;;;46.00;36.25;;;;;11.63;59.90;101545.34;4944094;28;45316;-63
2022/03/05 09:07:34;;;;;;;;;45.00;36.25;;;;;11.65;60.17;101543.50;4944137;28;45395;-63
2022/03/05 09:09:59;;;;;;;;;36.50;34.25;;;;;11.70;60.25;101544.28;4943795;28;46109;-63
2022/03/05 09:12:24;;;;;;;;;47.00;39.50;;;;;11.69;59.70;101542.50;4943692;28;45578;-63
2022/03/05 09:14:50;;;;;;;;;43.25;36.50;;;;;11.72;60.12;101545.09;4943460;28;45270;-63
2022/03/05 09:17:16;;;;;;;;;44.00;38.50;;;;;11.76;60.17;101541.47;4943859;28;45404;-63
2022/03/05 09:19:41;;;;;;;;;43.25;37.25;;;;;11.78;59.93;101542.28;4938297;28;46112;-63
2022/03/05 09:22:09;;;;;;;;;47.25;39.75;;;;;11.84;59.69;101543.94;4941068;28;45379;-63
2022/03/05 09:24:34;;;;;;;;;41.25;37.00;;;;;11.87;60.05;101549.22;4943741;28;45339;-63
2022/03/05 09:26:59;;;;;;;;;45.00;36.75;;;;;11.93;59.82;101545.53;4943323;28;45313;-63
2022/03/05 09:29:25;;;;;;;;;46.25;37.75;;;;;11.95;59.59;101543.72;4928112;28;46935;-63
2022/03/05 09:31:50;;;;;;;;;51.75;40.75;;;;;11.99;59.38;101550.72;4924725;28;45329;-63
2022/03/05 09:34:16;;;;;;;;;48.00;39.25;;;;;11.97;59.52;101539.19;4924619;28;45286;-63
2022/03/05 09:36:41;;;;;;;;;43.50;36.50;;;;;12.04;59.44;101540.78;4928088;28;45895;-63
2022/03/05 09:39:07;;;;;;;;;46.00;39.25;;;;;12.10;59.13;101548.66;4924278;28;46281;-63
2022/03/05 09:41:32;;;;;;;;;49.75;39.25;;;;;12.09;58.94;101546.88;4923857;28;45645;-63
2022/03/05 09:43:57;;;;;;;;;38.00;33.75;;;;;12.07;59.22;101551.41;4946136;28;45420;-63
2022/03/05 09:46:23;;;;;;;;;47.75;40.75;;;;;12.02;59.10;101542.63;4942821;28;45633;-63
2022/03/05 09:48:53;;;;;;;;;45.50;38.50;;;;;12.07;58.88;101545.19;4939765;28;45239;-63
2022/03/05 09:51:21;;;;;;;;;48.50;39.75;;;;;12.07;58.71;101543.38;4953410;28;45834;-63
2022/03/05 09:53:47;;;;;;;;;43.75;37.75;;;;;12.06;58.82;101546.97;4942136;28;45392;-63
2022/03/05 09:56:12;;;;;;;;;46.25;39.75;;;;;12.02;58.95;101531.91;4923755;28;45527;-63
2022/03/05 09:58:38;;;;;;;;;50.00;41.50;;;;;12.13;58.62;101540.56;4923512;28;45317;-63
2022/03/05 10:01:04;;;;;;;;;50.50;38.75;;;;;12.19;58.18;101551.06;4942720;28;45229;-63
2022/03/05 10:03:42;;;;;;;;;43.50;36.75;;;;;12.20;58.12;101546.63;4942292;28;45302;-63
2022/03/05 10:06:18;;;;;;;;;50.25;42.50;;;;;12.22;57.33;101534.06;4943820;28;45313;-63
2022/03/05 10:08:45;;;;;;;;;39.25;34.50;;;;;12.22;57.02;101542.97;4942752;28;46584;-63
2022/03/05 10:11:12;;;;;;;;;48.75;39.25;;;;;12.18;56.74;101540.44;4942181;28;45745;-63
2022/03/05 10:13:39;;;;;;;;;37.25;34.25;;;;;12.15;56.53;101535.16;4942087;28;45501;-63
2022/03/05 10:16:21;;;;;;;;;27.00;24.75;;;;;12.05;56.50;101513.13;4942655;28;45408;-63
2022/03/05 10:18:47;;;;;;;;;42.00;35.50;;;;;12.17;56.59;101534.19;4946701;28;46324;-63
2022/03/05 10:21:12;;;;;;;;;45.50;38.00;;;;;12.20;55.89;101538.59;4942595;28;45472;-63
2022/03/05 10:23:42;;;;;;;;;47.00;36.75;;;;;12.22;56.19;101540.28;4942498;28;45433;-63
2022/03/05 10:26:08;;;;;;;;;48.50;39.50;;;;;12.25;56.33;101538.47;4937470;28;45239;-63
2022/03/05 10:28:35;;;;;;;;;40.25;36.75;;;;;12.27;55.84;101542.00;4942101;28;46205;-63
2022/03/05 10:31:04;;;;;;;;;44.25;38.50;;;;;12.30;55.94;101531.22;4942534;28;45662;-63
2022/03/05 10:33:40;;;;;;;;;37.25;34.75;;;;;12.32;55.33;101542.75;4932894;28;45267;-63
2022/03/05 10:36:09;;;;;;;;;52.75;43.25;;;;;12.29;55.18;101535.66;4942331;28;45336;-63
2022/03/05 10:38:46;;;;;;;;;44.25;38.00;;;;;12.35;54.39;101540.00;4942561;28;46601;-63
2022/03/05 10:41:14;;;;;;;;;47.25;39.00;;;;;12.39;55.09;101542.50;4938826;28;45339;-63
2022/03/05 10:43:40;;;;;;;;;45.25;35.00;;;;;12.41;54.38;101538.03;4941335;28;45230;-63
2022/03/05 10:46:06;;;;;;;;;46.50;37.25;;;;;12.48;54.33;101545.88;4942396;28;45251;-63
2022/03/05 10:48:34;;;;;;;;;43.50;36.75;;;;;12.47;53.99;101531.59;4942323;28;46283;-63
2022/03/05 10:51:09;;;;;;;;;42.75;36.25;;;;;12.54;54.57;101541.22;4951898;28;45767;-63
2022/03/05 10:53:45;;;;;;;;;42.50;36.00;;;;;12.63;54.42;101539.22;4942481;28;45259;-63
2022/03/05 10:56:34;;;;;;;;;42.00;35.75;;;;;12.67;54.23;101530.19;4942269;28;45334;-63
2022/03/05 10:59:10;;;;;;;;;47.50;38.00;;;;;12.75;54.35;101538.88;4941984;28;46359;-63
2022/03/05 11:01:41;;;;;;;;;48.75;38.00;;;;;12.77;53.62;101529.84;4941947;28;45330;-63
2022/03/05 11:04:08;;;;;;;;;50.75;42.00;;;;;12.73;53.48;101538.03;4942348;28;45436;-63
2022/03/05 11:06:37;;;;;;;;;46.50;39.25;;;;;12.72;53.38;101534.47;4942185;28;45326;-63
2022/03/05 11:09:05;;;;;;;;;45.50;38.75;;;;;12.71;53.16;101534.50;4942127;28;45422;-63